Aviation Digital Data Service (ADDS)

Output produced by METARs form (0251 UTC 23 February 2017)
found at http://aviationweather.gov/adds/metars/
 
KLBE 222329Z 2300/2324 21006KT P6SM BKN040 
     FM230500 20005KT P6SM BKN025 
     FM230800 20003KT P6SM OVC012 
     FM231000 20004KT 4SM BR OVC008 
     FM231700 23007KT P6SM VCSH BKN012 
     FM232200 24008KT P6SM BKN030